Flight Number: AVA6093 Duration: 5:30
Departure: Dubai Intl Airport (OMDB) at 08:00 Distance: 2000 Nm
Arrival: Moscow Sheremetyevo (UUEE) at 13:30 Equipment: A321

Weather Information
Dubai International Airport, United Arab Emirates (OMDB) 25-15N 055-20E 5M Apr 14, 2024 - 11:00 PM EDT / 2024.04.15 0300 UTC
Wind: from the SE (130 degrees) at 9 MPH (8 KT):0
Visibility: greater than 7 mile(s):0 Temperature: 75 F (24 C) Dew Point: 48 F (9 C) Relative Humidity: 38% Pressure (altimeter): 29.83 in. Hg (1010 hPa)
ob: OMDB 150300Z 13008KT CAVOK 24/09 Q1010 NOSIG cycle: 3
Sunrise: 01:57 Sunset: 14:38 (UTC)

Moscow / Sheremet'Ye , Russia (UUEE) 55-59N 037-30E Apr 14, 2024 - 11:00 PM EDT / 2024.04.15 0300 UTC
Wind: from the WSW (250 degrees) at 11 MPH (10 KT):0
Visibility: greater than 7 mile(s):0 Temperature: 41 F (5 C) Dew Point: 37 F (3 C) Relative Humidity: 86% Pressure (altimeter): 29.41 in. Hg (0996 hPa)
ob: UUEE 150300Z 25005MPS CAVOK 05/03 Q0996 R24L/290051 R24C/290051 NOSIG cycle: 3
Sunrise: 02:26 Sunset: 16:33 (UTC)

TAF:2024/04/15 03:21 TAF UUEE 150155Z 1503/1603 26008G13MPS 9999 BKN016 TX09/1511Z TN04/1602Z TEMPO 1506/1521 23011G18MPS 4900 -SHRA SCT018CB

Previous Pireps for this route
Date Flightnr Aircraft Flight time Fuel used Landing rate On time
2019-05-25AVA6093A32104.5029310-179Yes
(pireps marked green are flown by you)

Route map